Time;durP1;ratioP1;P1;durP2;ratioP2;P2;SDS_P1;SDS_P2;PMS_P1;PMS_P2;Temp;Humidity;BMP_temperature;BMP_pressure;BME280_temperature;BME280_humidity;BME280_pressure;Samples;Min_cycle;Max_cycle;Signal;HPM_P1;HPM_P2
2022/01/27 00:03:23;;;;;;;30.42;15.25;;;6.10;99.90;;;;;;5075952;28;20048;-69
2022/01/27 00:05:59;;;;;;;34.75;16.00;;;6.10;99.90;;;;;;5057865;28;20040;-68
2022/01/27 00:08:30;;;;;;;37.70;15.40;;;6.10;99.90;;;;;;5075680;28;20094;-68
2022/01/27 00:11:02;;;;;;;31.67;15.85;;;6.10;99.90;;;;;;5059231;28;20036;-68
2022/01/27 00:13:42;;;;;;;34.05;16.02;;;6.10;99.90;;;;;;5075845;28;20123;-68
2022/01/27 00:16:14;;;;;;;32.95;15.40;;;6.10;99.90;;;;;;5075731;28;20613;-68
2022/01/27 00:18:44;;;;;;;35.10;17.33;;;6.10;99.90;;;;;;5075718;28;20125;-68
2022/01/27 00:21:10;;;;;;;;;;;6.10;99.90;;;;;;5076175;28;20040;-68
2022/01/27 00:23:37;;;;;;;30.27;15.65;;;6.10;99.90;;;;;;5075511;28;19927;-69
2022/01/27 00:26:04;;;;;;;36.13;16.85;;;6.10;99.90;;;;;;5059049;28;20492;-68
2022/01/27 00:28:30;;;;;;;36.22;18.33;;;6.10;99.90;;;;;;5075709;28;20039;-68
2022/01/27 00:30:55;;;;;;;30.50;16.23;;;6.10;99.90;;;;;;5075757;28;20561;-68
2022/01/27 00:33:21;;;;;;;37.78;18.40;;;6.10;99.90;;;;;;5075382;28;20040;-68
2022/01/27 00:35:47;;;;;;;36.85;18.65;;;6.10;99.90;;;;;;5074425;28;20052;-68
2022/01/27 00:38:13;;;;;;;36.60;16.98;;;6.10;99.90;;;;;;5074075;28;20044;-68
2022/01/27 00:40:39;;;;;;;34.67;18.58;;;6.00;99.90;;;;;;5075359;28;20036;-68
2022/01/27 00:43:05;;;;;;;32.85;17.08;;;6.00;99.90;;;;;;5075449;28;20075;-68
2022/01/27 00:45:32;;;;;;;33.67;17.48;;;6.00;99.90;;;;;;5075523;28;20504;-68
2022/01/27 00:48:02;;;;;;;39.05;16.98;;;6.00;99.90;;;;;;5075332;28;20040;-68
2022/01/27 00:50:28;;;;;;;32.97;16.27;;;6.10;99.90;;;;;;5075181;28;20051;-68
2022/01/27 00:52:56;;;;;;;32.83;14.88;;;6.10;99.90;;;;;;5058377;28;20051;-68
2022/01/27 00:55:24;;;;;;;38.53;16.65;;;6.10;99.90;;;;;;5058703;28;20043;-68
2022/01/27 01:00:22;;;;;;;30.08;18.38;;;6.10;99.90;;;;;;5074875;28;20071;-68
2022/01/27 01:07:46;;;;;;;27.42;15.82;;;6.10;99.90;;;;;;5072674;28;20051;-68
2022/01/27 01:15:35;;;;;;;34.38;16.70;;;6.00;99.90;;;;;;5074634;28;20562;-68
2022/01/27 01:31:15;;;;;;;35.70;17.85;;;5.90;99.90;;;;;;5074261;28;20090;-68
2022/01/27 01:33:43;;;;;;;34.72;18.15;;;5.90;99.90;;;;;;5074475;28;20044;-68
2022/01/27 01:36:26;;;;;;;30.02;16.90;;;5.80;99.90;;;;;;5055679;28;20434;-68
2022/01/27 01:38:52;;;;;;;39.70;20.75;;;5.80;99.90;;;;;;5057586;28;20097;-68
2022/01/27 01:41:18;;;;;;;32.70;18.88;;;5.80;99.90;;;;;;5074216;28;20036;-68
2022/01/27 01:43:43;;;;;;;35.70;19.10;;;5.70;99.90;;;;;;5074031;28;20135;-69
2022/01/27 01:46:09;;;;;;;36.65;17.75;;;5.80;99.90;;;;;;5057506;28;20047;-68
2022/01/27 01:48:35;;;;;;;39.40;20.85;;;5.80;99.90;;;;;;5074095;28;20079;-68
2022/01/27 01:51:03;;;;;;;35.38;18.20;;;5.80;99.90;;;;;;5057688;28;20100;-69
2022/01/27 01:53:29;;;;;;;33.42;19.05;;;5.80;99.90;;;;;;5057514;28;20040;-68
2022/01/27 01:55:55;;;;;;;37.38;18.85;;;5.80;99.90;;;;;;5057373;28;20085;-68
2022/01/27 01:58:21;;;;;;;37.75;20.55;;;5.70;99.90;;;;;;5074187;28;20036;-68
2022/01/27 02:00:47;;;;;;;40.28;20.23;;;5.70;99.90;;;;;;5073934;28;20040;-68
2022/01/27 02:03:12;;;;;;;26.98;12.48;;;5.60;99.90;;;;;;5074031;28;20040;-68
2022/01/27 02:05:45;;;;;;;34.58;19.38;;;5.60;99.90;;;;;;5073845;28;20036;-68
2022/01/27 02:19:14;;;;;;;39.30;21.65;;;5.60;99.90;;;;;;5073646;28;20043;-69
2022/01/27 02:21:54;;;;;;;36.53;19.67;;;5.60;99.90;;;;;;5073694;28;20052;-68
2022/01/27 02:24:23;;;;;;;37.88;18.75;;;5.60;99.90;;;;;;5057306;28;20381;-68
2022/01/27 02:26:49;;;;;;;41.83;20.30;;;5.60;99.90;;;;;;5057394;28;20442;-68
2022/01/27 02:29:16;;;;;;;38.95;20.45;;;5.60;99.90;;;;;;5073619;28;20487;-68
2022/01/27 02:31:42;;;;;;;37.88;19.42;;;5.60;99.90;;;;;;5060485;28;20119;-68
2022/01/27 02:34:08;;;;;;;38.40;21.42;;;5.60;99.90;;;;;;5077900;28;20126;-68
2022/01/27 02:36:34;;;;;;;39.13;21.20;;;5.60;99.90;;;;;;5075321;28;20150;-68
2022/01/27 02:39:02;;;;;;;41.50;21.75;;;5.60;99.90;;;;;;5058385;28;20044;-68
2022/01/27 02:41:35;;;;;;;40.22;23.15;;;5.60;99.90;;;;;;5057616;28;20074;-68
2022/01/27 02:44:01;;;;;;;37.83;21.40;;;5.70;99.90;;;;;;5057450;28;20072;-68
2022/01/27 02:46:35;;;;;;;41.28;22.00;;;5.80;99.90;;;;;;5040832;28;20079;-68
2022/01/27 02:49:01;;;;;;;37.50;21.17;;;5.80;99.90;;;;;;5057514;28;20048;-68
2022/01/27 02:51:27;;;;;;;39.13;21.05;;;5.80;99.90;;;;;;5040827;28;20405;-68
2022/01/27 02:53:56;;;;;;;35.15;18.95;;;5.90;99.90;;;;;;5040653;28;20040;-68
2022/01/27 02:56:22;;;;;;;34.20;20.60;;;5.90;99.90;;;;;;5057517;28;20105;-68
2022/01/27 02:58:48;;;;;;;37.08;19.70;;;6.00;99.90;;;;;;5057522;28;20500;-68
2022/01/27 03:01:20;;;;;;;40.30;21.92;;;6.00;99.90;;;;;;5040560;28;20467;-69
2022/01/27 03:03:46;;;;;;;37.90;19.85;;;6.10;99.90;;;;;;5057445;28;20131;-69
2022/01/27 03:06:12;;;;;;;41.75;20.75;;;6.10;99.90;;;;;;5054694;28;20690;-68
2022/01/27 03:08:38;;;;;;;42.80;21.27;;;6.10;99.90;;;;;;5057333;28;20404;-69
2022/01/27 03:11:11;;;;;;;36.92;19.85;;;6.10;99.90;;;;;;5056885;28;20493;-68
2022/01/27 03:13:37;;;;;;;42.08;19.73;;;6.10;99.90;;;;;;5057241;28;20093;-68
2022/01/27 03:16:06;;;;;;;37.03;20.85;;;6.20;99.90;;;;;;5056847;28;20404;-68
2022/01/27 03:18:32;;;;;;;37.35;20.13;;;6.20;99.90;;;;;;5040366;28;20036;-69
2022/01/27 03:20:58;;;;;;;41.88;20.77;;;6.20;99.90;;;;;;5056888;28;20049;-69
2022/01/27 03:23:23;;;;;;;43.78;18.98;;;6.20;99.90;;;;;;5072961;28;20059;-69
2022/01/27 03:25:49;;;;;;;37.25;19.10;;;6.20;99.90;;;;;;5076671;28;20079;-69
2022/01/27 03:28:18;;;;;;;34.97;19.40;;;6.20;99.90;;;;;;5076749;28;20070;-68
2022/01/27 03:30:43;;;;;;;37.55;17.80;;;6.20;99.90;;;;;;5059900;28;20044;-68
2022/01/27 03:33:09;;;;;;;35.38;19.50;;;6.20;99.90;;;;;;5076916;28;20109;-68
2022/01/27 03:35:35;;;;;;;38.40;19.23;;;6.20;99.90;;;;;;5077015;28;20035;-68
2022/01/27 03:38:01;;;;;;;35.17;18.52;;;6.20;99.90;;;;;;5074322;28;20036;-68
2022/01/27 03:40:27;;;;;;;36.40;19.58;;;6.30;99.90;;;;;;5076623;28;20058;-68
2022/01/27 03:43:04;;;;;;;34.50;16.17;;;6.30;99.90;;;;;;5059310;28;20458;-68
2022/01/27 03:45:30;;;;;;;38.45;19.75;;;6.30;99.90;;;;;;5076708;28;20408;-68
2022/01/27 03:47:56;;;;;;;34.60;18.10;;;6.30;99.90;;;;;;5076455;28;20535;-68
2022/01/27 03:50:22;;;;;;;45.17;20.00;;;6.30;99.90;;;;;;5060252;28;20051;-68
2022/01/27 03:52:48;;;;;;;37.65;18.75;;;6.30;99.90;;;;;;5059570;28;20112;-68
2022/01/27 03:55:14;;;;;;;37.97;18.85;;;6.30;99.90;;;;;;5076344;28;20492;-68
2022/01/27 03:57:39;;;;;;;30.70;17.48;;;6.30;99.90;;;;;;5059504;28;20480;-68
2022/01/27 04:00:07;;;;;;;32.75;16.65;;;6.30;99.90;;;;;;5076084;28;20094;-68
2022/01/27 04:02:36;;;;;;;38.80;18.83;;;6.30;99.90;;;;;;5059719;28;20040;-68
2022/01/27 04:05:02;;;;;;;41.00;22.20;;;6.30;99.90;;;;;;5059387;28;20036;-68
2022/01/27 04:07:28;;;;;;;37.90;18.45;;;6.30;99.90;;;;;;5073554;28;20051;-69
2022/01/27 04:09:53;;;;;;;39.38;18.05;;;6.30;99.90;;;;;;5075852;28;20055;-68
2022/01/27 04:12:19;;;;;;;33.20;17.48;;;6.30;99.90;;;;;;5059158;28;20120;-68
2022/01/27 04:14:45;;;;;;;31.90;16.80;;;6.30;99.90;;;;;;5076209;28;20044;-68
2022/01/27 04:17:11;;;;;;;38.90;16.55;;;6.30;99.90;;;;;;5076108;28;20419;-68
2022/01/27 04:19:37;;;;;;;37.85;17.40;;;6.30;99.90;;;;;;5075849;28;20400;-68
2022/01/27 04:22:03;;;;;;;37.47;16.95;;;6.40;99.90;;;;;;5075593;28;20060;-68
2022/01/27 04:24:30;;;;;;;37.22;17.67;;;6.30;99.90;;;;;;5075935;28;20055;-69
2022/01/27 04:27:05;;;;;;;27.20;14.75;;;6.40;99.90;;;;;;5075636;28;20044;-68
2022/01/27 04:29:34;;;;;;;35.13;15.98;;;6.40;99.90;;;;;;5075969;28;20039;-68
2022/01/27 04:32:01;;;;;;;33.97;14.95;;;6.40;99.90;;;;;;5059020;28;20564;-68
2022/01/27 04:34:28;;;;;;;31.95;16.33;;;6.40;99.90;;;;;;5075523;28;20043;-68
2022/01/27 04:36:56;;;;;;;33.08;16.95;;;6.40;99.90;;;;;;5072794;28;20560;-69
2022/01/27 04:39:36;;;;;;;35.83;16.05;;;6.40;99.90;;;;;;5075706;28;20126;-68
2022/01/27 04:42:13;;;;;;;36.20;16.48;;;6.40;99.90;;;;;;5058662;28;20044;-68
2022/01/27 04:45:02;;;;;;;30.00;15.88;;;6.50;99.90;;;;;;5058636;28;20492;-68
2022/01/27 04:47:37;;;;;;;33.03;15.63;;;6.50;99.90;;;;;;5075186;28;20043;-69
2022/01/27 04:50:03;;;;;;;29.13;15.40;;;6.50;99.90;;;;;;5058917;28;20428;-68
2022/01/27 04:52:33;;;;;;;34.20;16.98;;;6.50;99.90;;;;;;5075033;28;20123;-68
2022/01/27 04:55:08;;;;;;;34.83;15.88;;;6.50;99.90;;;;;;5074456;28;20043;-68
2022/01/27 04:57:37;;;;;;;30.20;14.88;;;6.50;99.90;;;;;;5075479;28;20044;-68
2022/01/27 05:00:04;;;;;;;29.33;15.30;;;6.50;99.90;;;;;;5075055;28;20036;-68
2022/01/27 05:02:43;;;;;;;33.63;15.80;;;6.50;99.90;;;;;;5074956;28;20082;-68
2022/01/27 05:05:10;;;;;;;29.55;14.57;;;6.50;99.90;;;;;;5074998;28;20075;-68
2022/01/27 05:07:36;;;;;;;30.90;15.23;;;6.50;99.90;;;;;;5072368;28;20108;-68
2022/01/27 05:10:10;;;;;;;29.55;15.27;;;6.50;99.90;;;;;;5058124;28;20036;-68
2022/01/27 05:12:45;;;;;;;35.65;15.70;;;6.50;99.90;;;;;;5074597;28;20047;-69
2022/01/27 05:15:11;;;;;;;29.50;15.32;;;6.50;99.90;;;;;;5074749;28;20117;-68
2022/01/27 05:17:37;;;;;;;30.90;16.25;;;6.60;99.90;;;;;;5074669;28;20097;-68
2022/01/27 05:20:03;;;;;;;33.35;14.80;;;6.60;99.90;;;;;;5058268;28;20040;-69
2022/01/27 05:22:31;;;;;;;28.33;13.73;;;6.60;99.90;;;;;;5074473;28;20056;-68
2022/01/27 05:24:57;;;;;;;25.30;13.18;;;6.60;99.90;;;;;;5074462;28;20101;-70
2022/01/27 05:27:23;;;;;;;31.02;14.77;;;6.60;99.90;;;;;;5074418;28;20044;-68
2022/01/27 05:29:51;;;;;;;23.80;12.15;;;6.60;99.90;;;;;;5057861;28;20044;-69
2022/01/27 05:32:18;;;;;;;25.05;12.30;;;6.60;99.90;;;;;;5074364;28;20039;-68
2022/01/27 05:34:44;;;;;;;29.35;14.00;;;6.60;99.90;;;;;;5074668;28;20048;-68
2022/01/27 05:37:10;;;;;;;31.25;14.20;;;6.70;99.90;;;;;;5055442;28;20099;-68
2022/01/27 05:39:36;;;;;;;28.80;13.20;;;6.70;99.90;;;;;;5057968;28;20048;-68
2022/01/27 05:42:02;;;;;;;25.48;12.70;;;6.70;99.90;;;;;;5074442;28;20400;-68
2022/01/27 05:44:28;;;;;;;27.13;12.73;;;6.70;99.90;;;;;;5074313;28;20122;-68
2022/01/27 05:46:54;;;;;;;28.88;12.80;;;6.70;99.90;;;;;;5074504;28;20190;-68
2022/01/27 05:49:19;;;;;;;28.02;13.50;;;6.70;99.90;;;;;;5074227;28;20040;-68
2022/01/27 05:51:45;;;;;;;35.70;13.50;;;6.70;99.90;;;;;;5074101;28;20040;-69
2022/01/27 05:54:11;;;;;;;29.88;13.95;;;6.60;99.90;;;;;;5074040;28;20512;-68
2022/01/27 05:56:37;;;;;;;33.80;12.82;;;6.60;99.90;;;;;;5057304;28;20123;-69
2022/01/27 05:59:03;;;;;;;30.95;13.55;;;6.70;99.90;;;;;;5074074;28;20039;-69
2022/01/27 06:01:29;;;;;;;32.45;14.45;;;6.70;99.90;;;;;;5057469;28;20393;-69
2022/01/27 06:03:55;;;;;;;34.30;13.90;;;6.70;99.90;;;;;;5073930;28;20048;-68
2022/01/27 06:06:21;;;;;;;31.77;13.13;;;6.70;99.90;;;;;;5054657;28;20051;-68
2022/01/27 06:08:46;;;;;;;32.45;13.40;;;6.70;99.90;;;;;;5074093;28;20079;-68
2022/01/27 06:11:12;;;;;;;31.23;13.82;;;6.70;99.90;;;;;;5073723;28;20040;-69
2022/01/27 06:13:38;;;;;;;32.60;13.55;;;6.70;99.90;;;;;;5073695;28;20071;-69
2022/01/27 06:16:09;;;;;;;34.90;13.82;;;6.70;99.90;;;;;;5074085;28;20036;-68
2022/01/27 06:18:37;;;;;;;43.45;15.82;;;6.60;99.90;;;;;;5056942;28;20049;-69
2022/01/27 06:21:05;;;;;;;34.85;15.82;;;6.60;99.90;;;;;;5073723;28;20047;-68
2022/01/27 06:23:31;;;;;;;42.60;15.77;;;6.60;99.90;;;;;;5056858;28;20052;-69
2022/01/27 06:25:59;;;;;;;43.40;15.93;;;6.50;99.90;;;;;;5073709;28;20048;-69
2022/01/27 06:28:25;;;;;;;41.28;15.70;;;6.50;99.90;;;;;;5073810;28;20056;-69
2022/01/27 06:30:51;;;;;;;47.80;16.30;;;6.50;99.90;;;;;;5056934;28;20054;-69
2022/01/27 06:33:17;;;;;;;41.53;16.08;;;6.50;99.90;;;;;;5073577;28;20036;-69
2022/01/27 06:35:42;;;;;;;42.05;17.95;;;6.50;99.90;;;;;;5056750;28;20119;-69
2022/01/27 06:38:08;;;;;;;46.28;18.65;;;6.50;99.90;;;;;;5071273;28;20129;-69
2022/01/27 06:40:34;;;;;;;39.10;17.50;;;6.50;99.90;;;;;;5073858;28;20566;-69
2022/01/27 06:43:00;;;;;;;35.35;15.70;;;6.50;99.90;;;;;;5073560;28;20561;-70
2022/01/27 06:45:27;;;;;;;40.75;17.30;;;6.50;99.90;;;;;;5073822;28;20051;-69
2022/01/27 06:47:52;;;;;;;39.40;17.80;;;6.50;99.90;;;;;;5073483;28;20484;-69
2022/01/27 06:50:19;;;;;;;41.40;17.38;;;6.60;99.90;;;;;;5073494;28;20139;-69
2022/01/27 06:52:45;;;;;;;43.75;17.05;;;6.60;99.90;;;;;;5073417;28;20373;-69
2022/01/27 06:55:13;;;;;;;40.65;17.17;;;6.60;99.90;;;;;;5073469;28;20040;-69
2022/01/27 06:57:39;;;;;;;44.17;16.55;;;6.60;99.90;;;;;;5073304;28;20047;-69
2022/01/27 07:00:09;;;;;;;45.60;19.90;;;6.60;99.90;;;;;;5073477;28;20044;-69
2022/01/27 07:02:35;;;;;;;48.08;20.35;;;6.70;99.90;;;;;;5073668;28;20047;-69
2022/01/27 07:05:01;;;;;;;60.65;27.35;;;6.60;99.90;;;;;;5056649;28;20666;-68
2022/01/27 07:07:27;;;;;;;48.72;19.85;;;6.60;99.90;;;;;;5070841;28;20085;-69
2022/01/27 07:09:53;;;;;;;46.75;19.20;;;6.60;99.90;;;;;;5073619;28;20040;-69
2022/01/27 07:12:19;;;;;;;35.70;17.17;;;6.70;99.90;;;;;;5073113;28;20036;-69
2022/01/27 07:14:45;;;;;;;41.63;16.83;;;6.70;99.90;;;;;;5073347;28;20136;-69
2022/01/27 07:17:12;;;;;;;39.33;17.27;;;6.70;99.90;;;;;;5074132;28;20047;-69
2022/01/27 07:19:38;;;;;;;45.90;18.42;;;6.70;99.90;;;;;;5060488;28;20393;-68
2022/01/27 07:22:04;;;;;;;52.00;18.10;;;6.70;99.90;;;;;;5076675;28;20075;-69
2022/01/27 07:24:30;;;;;;;44.47;17.85;;;6.70;99.90;;;;;;5060195;28;20058;-69
2022/01/27 07:26:57;;;;;;;44.65;17.00;;;6.70;99.90;;;;;;5060089;28;20051;-68
2022/01/27 07:29:22;;;;;;;37.63;16.05;;;6.70;99.90;;;;;;5060099;28;20039;-69
2022/01/27 07:31:48;;;;;;;43.22;17.98;;;6.70;99.90;;;;;;5060004;28;20108;-69
2022/01/27 07:34:14;;;;;;;49.92;17.67;;;6.70;99.90;;;;;;5076498;28;20523;-69
2022/01/27 07:36:40;;;;;;;44.05;16.23;;;6.70;99.90;;;;;;5072410;28;20062;-69
2022/01/27 07:39:12;;;;;;;45.97;15.80;;;6.70;99.90;;;;;;5072613;28;20075;-68
2022/01/27 07:41:38;;;;;;;39.08;15.35;;;6.70;99.90;;;;;;5059753;28;20047;-69
2022/01/27 07:44:04;;;;;;;41.97;15.30;;;6.70;99.90;;;;;;5059582;28;20063;-69
2022/01/27 07:46:30;;;;;;;40.78;15.75;;;6.70;99.90;;;;;;5076543;28;20032;-69
2022/01/27 07:48:56;;;;;;;41.30;14.10;;;6.70;99.90;;;;;;5059685;28;20048;-69
2022/01/27 07:51:22;;;;;;;37.88;14.70;;;6.70;99.90;;;;;;5076716;28;20369;-69
2022/01/27 07:53:48;;;;;;;42.53;15.68;;;6.80;99.90;;;;;;5059517;28;20048;-69
2022/01/27 07:56:14;;;;;;;35.15;14.30;;;6.80;99.90;;;;;;5076539;28;20127;-69
2022/01/27 07:58:43;;;;;;;35.03;13.93;;;6.80;99.90;;;;;;5076123;28;20507;-69
2022/01/27 08:01:08;;;;;;;63.92;31.00;;;6.80;99.90;;;;;;5059794;28;20047;-68
2022/01/27 08:03:38;;;;;;;38.13;16.73;;;6.90;99.90;;;;;;5059361;28;20492;-69
2022/01/27 08:06:05;;;;;;;41.08;16.98;;;6.90;99.90;;;;;;5074830;28;20048;-69
2022/01/27 08:08:32;;;;;;;38.10;14.50;;;6.90;99.90;;;;;;5076901;28;20043;-68
2022/01/27 08:10:58;;;;;;;34.67;13.45;;;6.90;99.90;;;;;;5088261;28;20079;-69
2022/01/27 08:13:25;;;;;;;35.70;13.57;;;7.00;99.90;;;;;;5094028;28;20055;-69
2022/01/27 08:15:51;;;;;;;39.92;14.32;;;7.00;99.90;;;;;;5076858;28;20040;-69
2022/01/27 08:18:17;;;;;;;32.83;12.20;;;7.00;99.90;;;;;;5077003;28;20051;-69
2022/01/27 08:20:44;;;;;;;28.75;12.68;;;7.10;99.90;;;;;;5093744;28;20036;-69
2022/01/27 08:23:13;;;;;;;33.72;11.50;;;7.10;99.90;;;;;;5093288;28;20063;-69
2022/01/27 08:25:38;;;;;;;30.33;11.30;;;7.10;99.90;;;;;;5093703;28;20404;-69
2022/01/27 08:28:07;;;;;;;37.25;11.35;;;7.10;99.90;;;;;;5093627;28;20052;-69
2022/01/27 08:30:41;;;;;;;29.98;12.10;;;7.10;99.90;;;;;;5076525;28;20097;-69
2022/01/27 08:33:14;;;;;;;35.05;11.57;;;7.10;99.90;;;;;;5093252;28;20109;-69
2022/01/27 08:35:40;;;;;;;29.75;11.32;;;7.20;99.90;;;;;;5076452;28;20043;-69
2022/01/27 08:38:06;;;;;;;27.90;11.98;;;7.20;99.90;;;;;;5082637;28;20032;-69
2022/01/27 08:40:32;;;;;;;31.15;12.27;;;7.20;99.90;;;;;;5059691;28;20108;-69
2022/01/27 08:42:58;;;;;;;29.63;11.43;;;7.30;99.90;;;;;;5059723;28;20044;-69
2022/01/27 08:45:25;;;;;;;22.30;10.00;;;7.30;99.90;;;;;;5076688;28;20483;-69
2022/01/27 08:47:52;;;;;;;27.23;10.18;;;7.40;99.90;;;;;;5076328;28;20047;-69
2022/01/27 08:50:20;;;;;;;27.08;10.73;;;7.40;99.90;;;;;;5076341;28;20523;-69
2022/01/27 08:52:47;;;;;;;27.17;10.98;;;7.60;99.90;;;;;;5059443;28;20119;-69
2022/01/27 08:55:13;;;;;;;23.80;9.93;;;7.60;99.90;;;;;;5076067;28;20077;-69
2022/01/27 08:57:39;;;;;;;25.50;9.63;;;7.70;99.90;;;;;;5076266;28;20032;-69
2022/01/27 09:00:08;;;;;;;22.65;10.52;;;7.80;99.90;;;;;;5075950;28;20520;-69
2022/01/27 09:02:34;;;;;;;14.95;7.32;;;7.80;99.90;;;;;;5059576;28;20044;-70
2022/01/27 09:05:00;;;;;;;23.27;7.95;;;7.90;99.90;;;;;;5059118;28;20374;-68
2022/01/27 09:07:26;;;;;;;27.80;7.45;;;8.00;99.90;;;;;;5057291;28;20385;-68
2022/01/27 09:09:52;;;;;;;14.98;6.78;;;8.10;99.90;;;;;;5059090;28;20044;-69
2022/01/27 09:12:18;;;;;;;19.00;6.85;;;8.10;99.90;;;;;;5075669;28;20040;-68
2022/01/27 09:14:45;;;;;;;23.30;8.30;;;8.10;99.90;;;;;;5075509;28;20048;-69
2022/01/27 09:17:13;;;;;;;19.10;7.05;;;8.10;99.90;;;;;;5075893;28;20063;-69
2022/01/27 09:19:41;;;;;;;22.20;7.38;;;8.20;99.90;;;;;;5075433;28;20064;-69
2022/01/27 09:22:14;;;;;;;19.60;6.88;;;8.20;99.90;;;;;;5071113;28;20131;-69
2022/01/27 09:24:54;;;;;;;19.45;8.00;;;8.20;99.90;;;;;;5075306;28;20051;-69
2022/01/27 09:27:20;;;;;;;16.88;6.40;;;8.20;99.90;;;;;;5075426;28;20118;-68
2022/01/27 09:29:47;;;;;;;18.55;8.27;;;8.20;99.90;;;;;;5075619;28;20131;-69
2022/01/27 09:32:15;;;;;;;18.10;6.88;;;8.30;99.90;;;;;;5083757;28;20387;-69
2022/01/27 09:34:43;;;;;;;17.20;5.63;;;8.30;99.90;;;;;;5092207;28;20044;-69
2022/01/27 09:37:10;;;;;;;19.52;6.20;;;8.40;99.90;;;;;;5072091;28;20032;-69
2022/01/27 09:39:37;;;;;;;15.93;6.25;;;8.40;99.90;;;;;;5074749;28;20561;-69
2022/01/27 09:42:04;;;;;;;16.40;5.50;;;8.40;99.90;;;;;;5075150;28;20489;-69
2022/01/27 09:44:32;;;;;;;14.90;6.47;;;8.40;99.90;;;;;;5055826;28;20055;-69
2022/01/27 09:47:02;;;;;;;27.42;11.85;;;8.40;99.90;;;;;;5074306;28;20097;-69
2022/01/27 09:49:39;;;;;;;17.83;6.45;;;8.30;99.90;;;;;;5058258;28;20113;-68
2022/01/27 09:52:06;;;;;;;19.63;5.80;;;8.40;99.90;;;;;;5074805;28;20516;-69
2022/01/27 09:54:33;;;;;;;16.60;5.75;;;8.40;99.90;;;;;;5058544;28;20525;-69
2022/01/27 09:57:00;;;;;;;17.55;6.60;;;8.40;99.90;;;;;;5058207;28;20043;-70
2022/01/27 09:59:26;;;;;;;18.52;6.05;;;8.40;99.90;;;;;;5058104;28;20032;-70
2022/01/27 10:02:06;;;;;;;16.58;5.20;;;8.50;99.90;;;;;;5075124;28;20101;-69
2022/01/27 10:04:45;;;;;;;16.77;4.88;;;8.50;99.90;;;;;;5074846;28;20043;-70
2022/01/27 10:07:14;;;;;;;13.63;5.18;;;8.50;99.90;;;;;;5072627;28;20131;-69
2022/01/27 10:09:54;;;;;;;16.17;5.20;;;8.50;99.90;;;;;;5074779;28;20127;-69
2022/01/27 10:12:25;;;;;;;13.87;4.47;;;8.50;99.90;;;;;;5057854;28;20044;-70
2022/01/27 10:15:02;;;;;;;18.02;6.05;;;8.50;99.90;;;;;;5074807;28;20395;-69
2022/01/27 10:17:29;;;;;;;18.85;6.05;;;8.50;99.90;;;;;;5058044;28;20040;-69
2022/01/27 10:19:57;;;;;;;14.73;6.00;;;8.50;99.90;;;;;;5057901;28;20097;-70
2022/01/27 10:22:23;;;;;;;19.67;6.35;;;8.60;99.90;;;;;;5071092;28;20056;-70
2022/01/27 10:25:00;;;;;;;19.17;5.72;;;8.60;99.90;;;;;;5071438;28;20048;-71
2022/01/27 10:27:35;;;;;;;16.83;5.43;;;8.70;99.90;;;;;;5054727;28;20142;-69
2022/01/27 10:30:36;;;;;;;14.98;5.72;;;8.70;99.90;;;;;;5054762;28;20376;-70
2022/01/27 10:32:57;;;;;;;17.02;6.75;;;8.80;99.90;;;;;;5071087;28;20056;-69
2022/01/27 10:35:25;;;;;;;19.80;5.45;;;8.80;99.90;;;;;;5054690;28;20040;-70
2022/01/27 10:38:06;;;;;;;13.93;5.20;;;8.80;99.90;;;;;;5062617;28;20107;-70
2022/01/27 10:40:35;;;;;;;22.67;5.68;;;8.90;99.90;;;;;;5066097;28;20040;-70
2022/01/27 10:43:17;;;;;;;15.27;4.97;;;8.90;99.90;;;;;;5071353;28;20049;-69
2022/01/27 10:46:12;;;;;;;13.23;4.65;;;9.00;99.90;;;;;;5071078;28;20052;-69
2022/01/27 10:48:51;;;;;;;12.35;5.05;;;9.00;99.90;;;;;;5071159;28;20060;-70
2022/01/27 10:51:25;;;;;;;16.05;4.18;;;9.00;99.90;;;;;;5071195;28;20063;-70
2022/01/27 10:53:56;;;;;;;15.00;4.43;;;9.00;99.90;;;;;;5058144;28;20041;-70
2022/01/27 10:56:27;;;;;;;16.00;4.68;;;9.00;99.90;;;;;;5074755;28;20508;-70
2022/01/27 10:58:54;;;;;;;18.73;4.45;;;9.00;99.90;;;;;;5074976;28;20044;-70
2022/01/27 11:01:33;;;;;;;20.42;6.30;;;9.00;99.90;;;;;;5058337;28;20083;-70
2022/01/27 11:04:05;;;;;;;15.68;4.05;;;9.00;99.90;;;;;;5058171;28;20041;-70
2022/01/27 11:06:33;;;;;;;11.88;3.75;;;9.00;99.90;;;;;;5072784;28;20040;-70
2022/01/27 11:09:07;;;;;;;12.23;4.28;;;9.10;99.90;;;;;;5074667;28;20083;-70
2022/01/27 11:11:35;;;;;;;17.38;5.25;;;9.10;99.90;;;;;;5074573;28;20508;-70
2022/01/27 11:14:03;;;;;;;23.70;5.10;;;9.20;99.90;;;;;;5074918;28;20041;-70
2022/01/27 11:16:39;;;;;;;13.23;4.10;;;9.40;99.90;;;;;;5074559;28;20481;-70
2022/01/27 11:22:03;;;;;;;20.27;4.45;;;9.80;99.90;;;;;;5074465;28;20432;-70
2022/01/27 11:24:54;;;;;;;15.57;5.07;;;9.80;99.90;;;;;;5074374;28;20051;-69
2022/01/27 11:27:26;;;;;;;22.08;4.28;;;9.60;99.90;;;;;;5074563;28;20401;-70
2022/01/27 11:30:14;;;;;;;12.70;4.53;;;9.50;99.90;;;;;;5074296;28;20044;-70
2022/01/27 11:33:02;;;;;;;18.30;3.65;;;9.40;99.90;;;;;;5057456;28;20477;-70
2022/01/27 11:35:29;;;;;;;19.02;4.30;;;9.40;99.90;;;;;;5074270;28;20134;-70
2022/01/27 11:37:57;;;;;;;17.45;4.90;;;9.40;99.90;;;;;;5048570;28;20095;-70
2022/01/27 11:40:36;;;;;;;14.02;3.63;;;9.40;99.90;;;;;;5067508;28;20072;-70
2022/01/27 11:43:06;;;;;;;17.23;4.03;;;9.50;99.90;;;;;;5074380;28;20238;-70
2022/01/27 11:45:44;;;;;;;18.65;4.53;;;9.40;99.90;;;;;;5074398;28;20404;-71
2022/01/27 11:48:13;;;;;;;18.58;4.97;;;9.40;99.90;;;;;;5057245;28;20606;-71
2022/01/27 11:51:10;;;;;;;16.58;4.25;;;9.40;99.90;;;;;;5057544;28;20397;-70
2022/01/27 11:53:40;;;;;;;17.08;3.88;;;9.40;99.90;;;;;;5057365;28;20092;-70
2022/01/27 11:56:06;;;;;;;;;;;9.40;99.90;;;;;;5074342;28;20045;-70
2022/01/27 11:58:43;;;;;;;17.63;4.80;;;9.40;99.90;;;;;;5057021;28;19923;-71
2022/01/27 12:01:21;;;;;;;14.02;4.55;;;9.30;99.90;;;;;;5057075;28;20550;-70
2022/01/27 12:04:07;;;;;;;19.33;3.95;;;9.30;99.90;;;;;;5056509;28;20044;-70
2022/01/27 12:06:37;;;;;;;20.75;5.07;;;9.30;99.90;;;;;;5071509;28;20051;-70
2022/01/27 12:09:18;;;;;;;17.50;4.72;;;9.30;99.90;;;;;;5073954;28;20132;-70
2022/01/27 12:12:01;;;;;;;16.63;3.42;;;9.30;99.90;;;;;;5073468;28;20041;-70
2022/01/27 12:14:56;;;;;;;28.25;6.57;;;9.30;99.90;;;;;;5073640;28;20123;-70
2022/01/27 12:17:23;;;;;;;13.77;3.38;;;9.30;99.90;;;;;;5062382;28;20048;-70
2022/01/27 12:20:09;;;;;;;17.35;3.75;;;9.30;99.90;;;;;;5073614;28;20045;-70
2022/01/27 12:22:49;;;;;;;12.35;3.63;;;9.30;99.90;;;;;;5073241;28;20060;-70
2022/01/27 12:25:17;;;;;;;13.77;3.20;;;9.40;99.90;;;;;;5073638;28;20055;-70
2022/01/27 12:27:50;;;;;;;18.60;4.13;;;9.40;99.90;;;;;;5056774;28;20380;-71
2022/01/27 12:30:17;;;;;;;14.27;3.72;;;9.50;99.90;;;;;;5073127;28;20480;-70
2022/01/27 12:32:43;;;;;;;15.63;4.10;;;9.50;99.90;;;;;;5056383;28;20037;-71
2022/01/27 12:35:12;;;;;;;15.40;3.35;;;9.50;99.90;;;;;;5073064;28;20094;-71
2022/01/27 12:37:45;;;;;;;18.08;4.10;;;9.50;99.90;;;;;;5066216;28;20132;-69
2022/01/27 12:40:30;;;;;;;18.23;6.00;;;9.50;99.90;;;;;;5040127;28;20067;-70
2022/01/27 12:43:03;;;;;;;22.35;4.50;;;9.50;99.90;;;;;;5039666;28;20036;-70
2022/01/27 12:45:31;;;;;;;17.40;3.63;;;9.50;99.90;;;;;;5056627;28;20409;-70
2022/01/27 12:48:07;;;;;;;20.17;3.67;;;9.40;99.90;;;;;;5056046;28;20106;-70
2022/01/27 12:50:35;;;;;;;13.43;3.33;;;9.40;99.90;;;;;;5056412;28;20082;-70
2022/01/27 12:53:08;;;;;;;14.82;3.05;;;9.40;99.90;;;;;;5056025;28;20076;-70
2022/01/27 12:55:37;;;;;;;16.33;4.50;;;9.40;99.90;;;;;;5056377;28;20370;-71
2022/01/27 12:58:06;;;;;;;18.08;3.40;;;9.40;99.90;;;;;;5056016;28;20040;-70
2022/01/27 13:00:39;;;;;;;17.38;3.30;;;9.50;99.90;;;;;;5056155;28;20040;-70
2022/01/27 13:03:05;;;;;;;21.75;3.88;;;9.50;99.90;;;;;;5056108;28;20373;-70
2022/01/27 13:05:36;;;;;;;18.10;4.03;;;9.70;99.90;;;;;;5039355;28;20040;-71
2022/01/27 13:08:03;;;;;;;;;;;9.60;99.90;;;;;;5054380;28;20040;-71
2022/01/27 13:10:29;;;;;;;20.92;4.05;;;9.70;99.90;;;;;;5039581;28;20003;-71
2022/01/27 13:13:04;;;;;;;17.20;3.60;;;9.60;99.90;;;;;;5055716;28;20119;-69
2022/01/27 13:15:31;;;;;;;17.00;2.85;;;9.70;99.90;;;;;;5054908;28;20048;-70
2022/01/27 13:18:07;;;;;;;19.77;4.03;;;9.70;99.90;;;;;;5055938;28;20089;-70
2022/01/27 13:20:41;;;;;;;20.40;3.80;;;9.60;99.90;;;;;;5055556;28;20044;-70
2022/01/27 13:25:59;;;;;;;15.82;3.58;;;9.50;99.90;;;;;;5055680;28;20101;-70
2022/01/27 13:28:35;;;;;;;20.90;3.78;;;9.40;99.90;;;;;;5055572;28;20040;-70
2022/01/27 13:31:07;;;;;;;16.48;3.28;;;9.40;99.90;;;;;;5055354;28;20036;-70
2022/01/27 13:33:44;;;;;;;15.45;3.72;;;9.40;99.90;;;;;;5038695;28;20036;-70
2022/01/27 13:36:21;;;;;;;17.27;3.50;;;9.30;99.90;;;;;;5036698;28;20041;-71